Terminal Aerodrome Forecast
Issued by NWS Wilmington, OH

Current Version | Previous Version | Graphics & Text | Print | Product List | Glossary On
Versions: 1 2 3 4 5 6 7 8 9 10 11 12 13 14 15 16 17 18 19 20 21 22 23 24
000
FTUS41 KILN 170800 AAA
TAFDAY
TAF AMD
KDAY 170828Z 1708/1806 00000KT 1SM BR SKC
      TEMPO 1709/1711 3/4SM BR SCT001
     FM171200 00000KT P6SM SKC
     FM171400 VRB03KT P6SM SCT030
     FM171800 26004KT P6SM SCT035 BKN120
     FM172300 35004KT P6SM FEW100=

USA.gov is the U.S. government's official web portal to all federal, state and local government web resources and services.